Flight Track Log - Related Links

Times and Time Zones

All times are in EDT time to prevent confusion due to time zone crossing. See the CFG236 flight status page for this flight to view local times or setup timezone preferences in your user account.

Time Position Orientation Groundspeed Altitude Reporting Facility
EDT Latitude Longitude Course Direction KTS MPH feet Rate Location/Type
Thu 04:06:07 PM 50.0420 8.5730 63° Northeast 181 208 300  Level FlightAware ADS-B
Thu 04:06:22 PM 50.0460 8.5920 72° East 175 201 1,000 2,550 Climbing FlightAware ADS-B
Thu 04:06:47 PM 50.0530 8.6210 69° East 175 201 2,000 1,964 Climbing FlightAware ADS-B
Thu 04:07:17 PM 50.0610 8.6580 71° East 187 215 2,800 1,418 Climbing FlightAware ADS-B
Thu 04:07:42 PM 50.0690 8.6930 70° East 206 237 3,300 1,050 Climbing FlightAware ADS-B
Thu 04:07:57 PM 50.0760 8.7110 59° Northeast 217 250 3,500 960 Climbing FlightAware ADS-B
Thu 04:08:07 PM 50.0840 8.7200 36° Northeast 223 257 3,700 1,333 Climbing FlightAware ADS-B
Thu 04:08:42 PM 50.1200 8.7430 22° Northeast 251 289 4,500 1,309 Climbing FlightAware ADS-B
Thu 04:09:02 PM 50.1410 8.7560 22° Northeast 267 307 4,900 1,800 Climbing FlightAware ADS-B
Thu 04:09:22 PM 50.1640 8.7720 24° Northeast 267 307 5,700 2,160 Climbing FlightAware ADS-B
Thu 04:09:52 PM 50.1990 8.7960 24° Northeast 278 320 6,700 1,964 Climbing FlightAware ADS-B
Thu 04:10:17 PM 50.2270 8.8160 25° Northeast 283 326 7,500 1,950 Climbing FlightAware ADS-B
Thu 04:10:32 PM 50.2490 8.8250 15° North 287 330 8,000 1,800 Climbing FlightAware ADS-B
Thu 04:10:37 PM 50.2540 8.8260 North 291 335 8,100 1,600 Climbing FlightAware ADS-B
Thu 04:11:02 PM 50.2860 8.8060 338° Northwest 293 337 8,800 1,714 Climbing FlightAware ADS-B
Thu 04:11:12 PM 50.2950 8.7890 310° West 293 337 9,100 1,920 Climbing FlightAware ADS-B
Thu 04:11:27 PM 50.3020 8.7630 293° West 293 337 9,600 1,800 Climbing FlightAware ADS-B
Thu 04:12:12 PM 50.3110 8.6660 278° West 306 352 10,900 1,412 Climbing FlightAware ADS-B
Thu 04:12:52 PM 50.3170 8.5720 276° West 336 387 11,600 975 Climbing FlightAware ADS-B
Thu 04:13:32 PM 50.3230 8.4700 275° West 365 420 12,200 1,350 Climbing FlightAware ADS-B
Thu 04:14:12 PM 50.3440 8.3690 288° West 380 437 13,400 1,835 Climbing FlightAware ADS-B
Thu 04:14:57 PM 50.3840 8.2660 301° West 386 444 14,800 1,867 Climbing FlightAware ADS-B
Thu 04:15:42 PM 50.4280 8.1550 302° West 394 453 16,200 1,835 Climbing FlightAware ADS-B
Thu 04:16:22 PM 50.4660 8.0580 302° West 399 459 17,400 1,800 Climbing FlightAware ADS-B
Thu 04:17:02 PM 50.5060 7.9560 302° West 404 465 18,600 1,624 Climbing FlightAware ADS-B
Thu 04:17:47 PM 50.5470 7.8550 303° West 405 466 19,700 1,482 Climbing FlightAware ADS-B
Thu 04:18:27 PM 50.5860 7.7480 300° West 415 478 20,700 1,275 Climbing FlightAware ADS-B
Thu 04:19:07 PM 50.6210 7.6420 298° West 424 488 21,400 1,200 Climbing FlightAware ADS-B
Thu 04:19:52 PM 50.6610 7.5170 297° West 429 494 22,400 1,271 Climbing FlightAware ADS-B
Thu 04:20:32 PM 50.6970 7.4070 297° West 436 502 23,200 1,200 Climbing FlightAware ADS-B
Thu 04:21:17 PM 50.7380 7.2750 296° West 442 509 24,100 1,200 Climbing FlightAware ADS-B
Thu 04:21:57 PM 50.7760 7.1580 297° West 444 511 24,900 1,341 Climbing FlightAware ADS-B
Thu 04:22:42 PM 50.8160 7.0270 296° West 442 509 26,000 1,200 Climbing FlightAware ADS-B
Thu 04:23:22 PM 50.8430 6.9070 290° West 442 509 26,600 1,050 Climbing FlightAware ADS-B
Thu 04:24:02 PM 50.8630 6.7790 284° West 442 509 27,400 988 Climbing FlightAware ADS-B
Thu 04:24:47 PM 50.8840 6.6360 283° West 450 518 28,000 706 Climbing FlightAware ADS-B
Thu 04:25:27 PM 50.9030 6.5060 283° West 459 528 28,400 1,059 Climbing FlightAware ADS-B
Thu 04:26:12 PM 50.9230 6.3650 283° West 453 521 29,500 1,482 Climbing FlightAware ADS-B
Thu 04:26:52 PM 50.9430 6.2310 283° West 449 517 30,500 1,350 Climbing FlightAware ADS-B
Thu 04:27:32 PM 50.9600 6.1040 282° West 446 513 31,300 1,059 Climbing FlightAware ADS-B
Thu 04:28:17 PM 50.9800 5.9630 283° West 444 511 32,000 494 Climbing FlightAware ADS-B
Thu 04:28:57 PM 50.9980 5.8340 283° West 446 513 32,000  Level FlightAware ADS-B
Thu 04:29:37 PM 51.0150 5.7100 282° West 442 509 32,000  Level FlightAware ADS-B
Thu 04:30:22 PM 51.0350 5.5640 282° West 437 503 32,000  Level FlightAware ADS-B
Thu 04:31:02 PM 51.0520 5.4410 282° West 436 502 32,000  Level FlightAware ADS-B
Thu 04:31:47 PM 51.0700 5.3080 282° West 435 501 32,000  Level FlightAware ADS-B
Thu 04:32:27 PM 51.0880 5.1750 282° West 434 499 32,000  Level FlightAware ADS-B
Thu 04:33:12 PM 51.1080 5.0280 282° West 436 502 32,000  Level FlightAware ADS-B
Thu 04:33:52 PM 51.1230 4.9120 282° West 437 503 32,000  Level FlightAware ADS-B
Thu 04:34:37 PM 51.1430 4.7620 282° West 437 503 32,000  Level FlightAware ADS-B
Thu 04:35:17 PM 51.1590 4.6360 281° West 437 503 32,000 -1,406 Level FlightAware ADS-B
Thu 04:35:41 PM 51.1718 4.5512 281° West 462 532 30,500  Descending FlightAware UK
Thu 04:35:57 PM 51.1750 4.5090 281° West 438 504 32,000  Climbing FlightAware ADS-B
Thu 04:36:17 PM 51.1859 4.4367 281° West 466 536 30,500 -2,368 Descending FlightAware UK
Thu 04:36:35 PM 51.1934 4.3797 282° West 464 534 30,500 4,500 Level FlightAware UK
Thu 04:36:37 PM 51.1910 4.3870 282° West 439 505 32,000  Climbing FlightAware ADS-B
Thu 04:36:53 PM 51.1996 4.3229 282° West 462 532 30,500 -2,647 Descending FlightAware UK
Thu 04:37:11 PM 51.2055 4.2650 279° West 464 534 30,500 3,103 Level FlightAware UK
Thu 04:37:22 PM 51.2100 4.2360 279° West 442 509 32,000  Climbing FlightAware ADS-B
Thu 04:37:47 PM 51.2200 4.1500 279° West 462 532 30,500  Descending FlightAware UK
Thu 04:38:02 PM 51.2260 4.1080 279° West 444 511 32,000  Climbing FlightAware ADS-B
Thu 04:38:17 PM 51.2328 4.0540 279° West 464 534 30,500 -2,727 Descending FlightAware UK
Thu 04:38:35 PM 51.2401 3.9962 281° West 462 532 30,500 3,000 Level FlightAware UK
Thu 04:38:47 PM 51.2430 3.9660 281° West 448 516 32,000  Climbing FlightAware ADS-B
Thu 04:39:05 PM 51.2512 3.8988 281° West 460 529 30,500 -2,500 Descending FlightAware UK
Thu 04:39:23 PM 51.2579 3.8404 280° West 460 529 30,500 4,091 Level FlightAware UK
Thu 04:39:27 PM 51.2560 3.8490 280° West 447 514 32,000  Climbing FlightAware ADS-B
Thu 04:39:47 PM 51.2651 3.7621 280° West 464 534 30,500 -2,368 Descending FlightAware UK
Thu 04:40:05 PM 51.2700 3.7030 278° West 464 534 30,500 4,500 Level FlightAware UK
Thu 04:40:07 PM 51.2680 3.7110 278° West 450 518 32,000  Climbing FlightAware ADS-B
Thu 04:40:35 PM 51.2781 3.6044 278° West 466 536 30,500  Descending FlightAware UK
Thu 04:40:42 PM 51.2780 3.5900 278° West 451 519 32,000  Climbing FlightAware ADS-B
Thu 04:40:59 PM 51.2840 3.5250 278° West 464 534 30,500 -2,571 Descending FlightAware UK
Thu 04:41:17 PM 51.2886 3.4655 277° West 466 536 30,500 2,727 Level FlightAware UK
Thu 04:41:32 PM 51.2910 3.4250 277° West 452 520 32,000  Climbing FlightAware ADS-B
Thu 04:41:47 PM 51.2953 3.3661 277° West 462 532 30,500 -2,727 Descending FlightAware UK
Thu 04:42:05 PM 51.3003 3.3066 278° West 460 529 30,500 3,600 Level FlightAware UK
Thu 04:42:12 PM 51.3030 3.2950 278° West 456 525 32,000  Climbing FlightAware ADS-B
Thu 04:42:29 PM 51.3105 3.2270 278° West 458 527 30,500 -2,571 Descending FlightAware UK
Thu 04:42:47 PM 51.3171 3.1677 280° West 458 527 30,500  Level FlightAware UK
Thu 04:43:05 PM 51.3233 3.1076 279° West 460 529 30,500 4,500 Level FlightAware UK
Thu 04:43:07 PM 51.3230 3.1060 279° West 460 529 32,000  Climbing FlightAware ADS-B
Thu 04:43:23 PM 51.3294 3.0474 279° West 466 536 30,500 -2,250 Descending FlightAware UK
Thu 04:43:47 PM 51.3366 2.9664 278° West 466 536 30,500 3,103 Level FlightAware UK
Thu 04:43:52 PM 51.3360 2.9670 278° West 463 533 32,000  Climbing FlightAware ADS-B
Thu 04:44:11 PM 51.3441 2.8853 278° West 468 539 30,500 -2,500 Descending FlightAware UK
Thu 04:44:28 PM 51.3498 2.8249 279° West 472 543 30,500 4,286 Level FlightAware UK
Thu 04:44:32 PM 51.3490 2.8280 279° West 465 535 32,000  Climbing FlightAware ADS-B
Thu 04:44:47 PM 51.3556 2.7631 279° West 472 543 30,500 -2,813 Descending FlightAware UK
Thu 04:45:04 PM 51.3612 2.7026 278° West 472 543 30,500 3,000 Level FlightAware UK
Thu 04:45:17 PM 51.3630 2.6740 278° West 464 534 32,000  Climbing FlightAware ADS-B
Thu 04:45:34 PM 51.3705 2.6013 278° West 472 543 30,500 -2,571 Descending FlightAware UK
Thu 04:45:52 PM 51.3759 2.5394 278° West 472 543 30,500 3,913 Level FlightAware UK
Thu 04:45:57 PM 51.3760 2.5370 278° West 463 533 32,000 3,600 Climbing FlightAware ADS-B
Thu 04:46:17 PM 51.3841 2.4585 279° West 464 534 32,000 -2,432 Level FlightAware ADS-B
Thu 04:46:34 PM 51.3925 2.3989 279° West 468 539 30,500  Descending FlightAware UK
Thu 04:46:48 PM 51.3983 2.3571 279° West 463 533 32,000  Climbing FlightAware ADS-B
Thu 04:47:04 PM 51.4063 2.2990 279° West 466 536 30,500  Descending FlightAware UK
Thu 04:47:20 PM 51.4126 2.2488 279° West 462 532 32,000  Climbing FlightAware ADS-B
Thu 04:47:40 PM 51.4217 2.1786 279° West 466 536 30,500  Descending FlightAware UK
Thu 04:47:50 PM 51.4251 2.1477 279° West 462 532 32,000  Climbing FlightAware ADS-B
Thu 04:48:10 PM 51.4339 2.0780 279° West 468 539 30,500  Descending FlightAware UK
Thu 04:48:23 PM 51.4382 2.0379 279° West 462 532 32,000  Climbing FlightAware ADS-B
Thu 04:48:40 PM 51.4455 1.9775 279° West 468 539 30,500  Descending FlightAware UK
Thu 04:48:55 PM 51.4506 1.9321 279° West 460 529 32,000  Climbing FlightAware ADS-B
Thu 04:49:10 PM 51.4570 1.8769 279° West 470 541 30,500  Descending FlightAware UK
Thu 04:49:25 PM 51.4626 1.8312 279° West 460 529 32,000  Climbing FlightAware ADS-B
Thu 04:49:40 PM 51.4689 1.7774 279° West 468 539 30,500  Descending FlightAware UK
Thu 04:49:55 PM 51.4743 1.7313 279° West 458 527 32,000  Climbing FlightAware ADS-B
Thu 04:50:10 PM 51.4806 1.6776 279° West 466 536 30,500  Descending FlightAware UK
Thu 04:50:26 PM 51.4864 1.6268 279° West 456 525 32,000  Climbing FlightAware ADS-B
Thu 04:50:46 PM 51.4934 1.5575 279° West 468 539 30,500  Descending FlightAware UK
Thu 04:50:58 PM 51.4954 1.5220 279° West 455 524 32,000  Climbing FlightAware ADS-B
Thu 04:51:16 PM 51.5002 1.4580 279° West 466 536 30,500  Descending FlightAware UK
Thu 04:51:28 PM 51.5027 1.4212 279° West 454 522 32,000  Climbing FlightAware ADS-B
Thu 04:51:46 PM 51.5074 1.3580 279° West 462 532 30,500 -2,500 Descending FlightAware UK
Thu 04:52:04 PM 51.5118 1.2986 277° West 462 532 30,500 2,903 Level FlightAware UK
Thu 04:52:17 PM 51.5140 1.2750 277° West 452 520 32,000 4,500 Climbing FlightAware ADS-B
Thu 04:52:24 PM 51.5169 1.2322 276° West 453 521 32,000 -3,913 Level FlightAware ADS-B
Thu 04:52:40 PM 51.5209 1.1790 276° West 462 532 30,500  Descending FlightAware UK
Thu 04:52:56 PM 51.5251 1.1261 276° West 451 519 32,000  Climbing FlightAware ADS-B
Thu 04:53:16 PM 51.5302 1.0604 276° West 460 529 30,500  Descending FlightAware UK
Thu 04:53:27 PM 51.5330 1.0233 276° West 451 519 32,000  Climbing FlightAware ADS-B
Thu 04:53:46 PM 51.5379 0.9611 276° West 458 527 30,500  Descending FlightAware UK
Thu 04:53:58 PM 51.5406 0.9232 276° West 451 519 32,000  Climbing FlightAware ADS-B
Thu 04:54:16 PM 51.5455 0.8618 276° West 458 527 30,500  Descending FlightAware UK
Thu 04:54:28 PM 51.5481 0.8230 276° West 452 520 32,000  Climbing FlightAware ADS-B
Thu 04:54:46 PM 51.5528 0.7622 276° West 460 529 30,500  Descending FlightAware UK
Thu 04:54:58 PM 51.5555 0.7226 276° West 452 520 32,000  Climbing FlightAware ADS-B
Thu 04:55:15 PM 51.5600 0.6632 276° West 462 532 30,500  Descending FlightAware UK
Thu 04:55:29 PM 51.5632 0.6181 276° West 453 521 32,000  Climbing FlightAware ADS-B
Thu 04:55:45 PM 51.5672 0.5633 276° West 464 534 30,500  Descending FlightAware UK
Thu 04:56:00 PM 51.5704 0.5175 276° West 453 521 32,000  Climbing FlightAware ADS-B
Thu 04:56:16 PM 51.5744 0.4626 276° West 462 532 30,500  Descending FlightAware UK
Thu 04:56:30 PM 51.5777 0.4148 276° West 453 521 32,000  Climbing FlightAware ADS-B
Thu 04:56:45 PM 51.5813 0.3633 276° West 464 534 30,500  Descending FlightAware UK
Thu 04:57:01 PM 51.5847 0.3127 276° West 454 522 32,000  Climbing FlightAware ADS-B
Thu 04:57:21 PM 51.5896 0.2436 276° West 462 532 30,500  Descending FlightAware UK
Thu 04:57:33 PM 51.5921 0.2058 276° West 454 522 32,000  Climbing FlightAware ADS-B
Thu 04:57:51 PM 51.5964 0.1434 276° West 464 534 30,500  Descending FlightAware UK
Thu 04:58:03 PM 51.5989 0.1047 276° West 454 522 32,000  Climbing FlightAware ADS-B
Thu 04:58:27 PM 51.6045 0.0237 276° West 464 534 30,500  Descending FlightAware UK
Thu 04:58:34 PM 51.6059 0.0030 276° West 454 522 32,000  Climbing FlightAware ADS-B
Thu 04:58:51 PM 51.6098 -0.0573 276° West 464 534 30,500  Descending FlightAware UK
Thu 04:59:04 PM 51.6125 -0.0980 276° West 454 522 32,000  Climbing FlightAware ADS-B
Thu 04:59:21 PM 51.6163 -0.1570 276° West 464 534 30,500  Descending FlightAware UK
Thu 04:59:34 PM 51.6191 -0.1997 276° West 453 521 32,000  Climbing FlightAware ADS-B
Thu 04:59:51 PM 51.6229 -0.2573 276° West 462 532 30,500  Descending FlightAware UK
Thu 05:00:06 PM 51.6259 -0.3049 276° West 454 522 32,000  Climbing FlightAware ADS-B
Thu 05:00:21 PM 51.6292 -0.3572 276° West 464 534 30,500  Descending FlightAware UK
Thu 05:00:36 PM 51.6324 -0.4054 276° West 454 522 32,000  Climbing FlightAware ADS-B
Thu 05:00:51 PM 51.6357 -0.4584 276° West 464 534 30,500  Descending FlightAware UK
Thu 05:01:06 PM 51.6386 -0.5067 276° West 454 522 32,000  Climbing FlightAware ADS-B
Thu 05:01:21 PM 51.6417 -0.5575 276° West 466 536 30,500  Descending FlightAware UK
Thu 05:01:38 PM 51.6452 -0.6132 276° West 454 522 32,000  Climbing FlightAware ADS-B
Thu 05:01:57 PM 51.6491 -0.6789 276° West 466 536 30,500  Descending FlightAware UK
Thu 05:02:08 PM 51.6514 -0.7152 276° West 454 522 32,000  Climbing FlightAware ADS-B
Thu 05:02:27 PM 51.6552 -0.7791 276° West 466 536 30,500  Descending FlightAware UK
Thu 05:02:38 PM 51.6574 -0.8164 276° West 453 521 32,000  Climbing FlightAware ADS-B
Thu 05:02:56 PM 51.6611 -0.8788 276° West 462 532 30,500  Descending FlightAware UK
Thu 05:03:08 PM 51.6634 -0.9170 276° West 454 522 32,000  Climbing FlightAware ADS-B
Thu 05:03:26 PM 51.6670 -0.9794 276° West 464 534 30,500  Descending FlightAware UK
Thu 05:03:38 PM 51.6692 -1.0177 276° West 454 522 32,000  Climbing FlightAware ADS-B
Thu 05:03:56 PM 51.6728 -1.0801 276° West 468 539 30,500  Descending FlightAware UK
Thu 05:04:09 PM 51.6751 -1.1209 276° West 453 521 32,000  Climbing FlightAware ADS-B
Thu 05:04:26 PM 51.6785 -1.1807 276° West 468 539 30,500  Descending FlightAware UK
Thu 05:04:41 PM 51.6812 -1.2266 276° West 452 520 32,000 3,913 Climbing FlightAware ADS-B
Thu 05:04:49 PM 51.6839 -1.2551 279° West 450 518 32,000  Level FlightAware ADS-B
Thu 05:05:05 PM 51.6924 -1.3059 285° West 448 516 32,000 -2,903 Level FlightAware ADS-B
Thu 05:05:20 PM 51.7027 -1.3558 285° West 464 534 30,500  Descending FlightAware UK
Thu 05:05:35 PM 51.7132 -1.4002 285° West 445 512 32,000  Climbing FlightAware ADS-B
Thu 05:05:50 PM 51.7247 -1.4472 285° West 470 541 30,500  Descending FlightAware UK
Thu 05:06:05 PM 51.7360 -1.4934 285° West 445 512 32,000  Climbing FlightAware ADS-B
Thu 05:06:20 PM 51.7474 -1.5403 285° West 470 541 30,500  Descending FlightAware UK
Thu 05:06:36 PM 51.7587 -1.5877 285° West 444 511 32,000  Climbing FlightAware ADS-B
Thu 05:06:56 PM 51.7735 -1.6509 285° West 468 539 30,500  Descending FlightAware UK
Thu 05:07:07 PM 51.7809 -1.6828 285° West 442 509 32,000  Climbing FlightAware ADS-B
Thu 05:07:26 PM 51.7951 -1.7442 285° West 466 536 30,500  Descending FlightAware UK
Thu 05:07:37 PM 51.8023 -1.7760 285° West 441 507 32,000  Climbing FlightAware ADS-B
Thu 05:07:56 PM 51.8160 -1.8361 285° West 466 536 30,500  Descending FlightAware UK
Thu 05:08:08 PM 51.8240 -1.8707 285° West 440 506 32,000  Climbing FlightAware ADS-B
Thu 05:08:26 PM 51.8371 -1.9282 285° West 466 536 30,500  Descending FlightAware UK
Thu 05:08:38 PM 51.8453 -1.9640 285° West 438 504 32,000  Climbing FlightAware ADS-B
Thu 05:08:56 PM 51.8582 -2.0202 285° West 464 534 30,500  Descending FlightAware UK
Thu 05:09:09 PM 51.8669 -2.0584 285° West 438 504 32,000  Climbing FlightAware ADS-B
Thu 05:09:26 PM 51.8790 -2.1114 285° West 462 532 30,500  Descending FlightAware UK
Thu 05:09:39 PM 51.8879 -2.1502 285° West 437 503 32,000  Climbing FlightAware ADS-B
Thu 05:09:56 PM 51.8998 -2.2024 285° West 462 532 30,500  Descending FlightAware UK
Thu 05:10:10 PM 51.9098 -2.2461 285° West 436 502 32,000  Climbing FlightAware ADS-B
Thu 05:10:26 PM 51.9207 -2.2941 285° West 460 529 30,500  Descending FlightAware UK
Thu 05:10:42 PM 51.9316 -2.3421 285° West 436 502 32,000  Climbing FlightAware ADS-B
Thu 05:11:02 PM 51.9456 -2.4039 285° West 460 529 30,500  Descending FlightAware UK
Thu 05:11:14 PM 51.9541 -2.4410 285° West 435 501 32,000  Climbing FlightAware ADS-B
Thu 05:11:31 PM 51.9664 -2.4949 285° West 460 529 30,500  Descending FlightAware UK
Thu 05:11:46 PM 51.9758 -2.5370 285° West 436 502 32,000  Climbing FlightAware ADS-B
Thu 05:12:01 PM 51.9869 -2.5866 285° West 462 532 30,500  Descending FlightAware UK
Thu 05:12:19 PM 51.9983 -2.6381 285° West 435 501 32,000  Climbing FlightAware ADS-B
Thu 05:12:37 PM 52.0115 -2.6970 285° West 464 534 30,500 -2,500 Descending FlightAware UK
Thu 05:12:55 PM 52.0238 -2.7521 290° West 464 534 30,500  Level FlightAware UK
Thu 05:13:13 PM 52.0359 -2.8066 290° West 464 534 30,500 4,091 Level FlightAware UK
Thu 05:13:17 PM 52.0370 -2.8100 290° West 434 499 32,000  Climbing FlightAware ADS-B
Thu 05:13:37 PM 52.0522 -2.8807 290° West 464 534 30,500 -2,368 Descending FlightAware UK
Thu 05:13:55 PM 52.0644 -2.9356 290° West 466 536 30,500 3,600 Level FlightAware UK
Thu 05:14:02 PM 52.0680 -2.9500 290° West 433 498 32,000 3,103 Climbing FlightAware ADS-B
Thu 05:14:24 PM 52.0830 -3.0203 289° West 436 502 32,000 -2,195 Level FlightAware ADS-B
Thu 05:14:43 PM 52.0963 -3.0809 289° West 464 534 30,500 -2,432 Descending FlightAware UK
Thu 05:15:01 PM 52.1084 -3.1364 290° West 462 532 30,500  Level FlightAware UK
Thu 05:15:19 PM 52.1204 -3.1913 290° West 462 532 30,500 4,286 Level FlightAware UK
Thu 05:15:22 PM 52.1200 -3.1880 290° West 431 496 32,000  Climbing FlightAware ADS-B
Thu 05:15:37 PM 52.1321 -3.2456 290° West 462 532 30,500 -2,727 Descending FlightAware UK
Thu 05:15:55 PM 52.1441 -3.3005 290° West 462 532 30,500 3,600 Level FlightAware UK
Thu 05:16:02 PM 52.1460 -3.3090 290° West 430 495 32,000  Climbing FlightAware ADS-B
Thu 05:16:19 PM 52.1600 -3.3737 290° West 462 532 30,500  Descending FlightAware UK
Thu 05:16:34 PM 52.1691 -3.4163 290° West 32,000 4,286 Climbing FlightAware ADS-B
Thu 05:16:40 PM 52.1730 -3.4346 289° West 430 495 32,000 -4,286 Level FlightAware ADS-B
Thu 05:16:55 PM 52.1837 -3.4835 289° West 462 532 30,500  Descending FlightAware UK
Thu 05:17:11 PM 52.1937 -3.5310 289° West 430 495 32,000  Climbing FlightAware ADS-B
Thu 05:17:31 PM 52.2070 -3.5927 289° West 462 532 30,500  Descending FlightAware UK
Thu 05:17:42 PM 52.2142 -3.6267 289° West 430 495 32,000  Climbing FlightAware ADS-B
Thu 05:18:01 PM 52.2265 -3.6843 289° West 462 532 30,500 -2,432 Descending FlightAware UK
Thu 05:18:19 PM 52.2381 -3.7392 289° West 462 532 30,500  Level FlightAware UK
Thu 05:18:37 PM 52.2496 -3.7934 289° West 462 532 30,500 2,727 Level FlightAware UK
Thu 05:18:52 PM 52.2570 -3.8270 289° West 428 493 32,000  Climbing FlightAware ADS-B
Thu 05:19:07 PM 52.2689 -3.8848 289° West 462 532 30,500 -2,727 Descending FlightAware UK
Thu 05:19:25 PM 52.2804 -3.9397 289° West 462 532 30,500 3,000 Level FlightAware UK
Thu 05:19:37 PM 52.2860 -3.9690 289° West 427 491 32,000  Climbing FlightAware ADS-B
Thu 05:19:55 PM 52.2996 -4.0311 289° West 462 532 30,500 -2,500 Descending FlightAware UK
Thu 05:20:13 PM 52.3111 -4.0861 289° West 462 532 30,500 4,091 Level FlightAware UK
Thu 05:20:17 PM 52.3110 -4.0840 289° West 428 493 32,000  Climbing FlightAware ADS-B
Thu 05:20:37 PM 52.3262 -4.1594 289° West 462 532 30,500 -2,432 Descending FlightAware UK
Thu 05:20:54 PM 52.3374 -4.2138 289° West 464 534 30,500 3,600 Level FlightAware UK
Thu 05:21:02 PM 52.3400 -4.2250 289° West 428 493 32,000  Climbing FlightAware ADS-B
Thu 05:21:19 PM 52.3528 -4.2878 289° West 464 534 30,500 -2,571 Descending FlightAware UK
Thu 05:21:37 PM 52.3641 -4.3429 289° West 466 536 30,500 3,913 Level FlightAware UK
Thu 05:21:42 PM 52.3660 -4.3530 289° West 428 493 32,000  Climbing FlightAware ADS-B
Thu 05:22:00 PM 52.3791 -4.4157 289° West 466 536 30,500 -2,500 Descending FlightAware UK
Thu 05:22:18 PM 52.3904 -4.4708 289° West 464 534 30,500 3,333 Level FlightAware UK
Thu 05:22:27 PM 52.3940 -4.4870 289° West 426 490 32,000  Climbing FlightAware ADS-B
Thu 05:22:42 PM 52.4055 -4.5440 289° West 466 536 30,500 -2,727 Descending FlightAware UK
Thu 05:23:00 PM 52.4166 -4.5991 288° West 464 534 30,500 3,600 Level FlightAware UK
Thu 05:23:07 PM 52.4180 -4.6090 288° West 425 489 32,000  Climbing FlightAware ADS-B
Thu 05:23:24 PM 52.4312 -4.6724 288° West 464 534 30,500 -2,571 Descending FlightAware UK
Thu 05:23:42 PM 52.4423 -4.7273 288° West 464 534 30,500 3,913 Level FlightAware UK
Thu 05:23:47 PM 52.4430 -4.7310 288° West 425 489 32,000  Climbing FlightAware ADS-B
Thu 05:24:06 PM 52.4570 -4.8006 288° West 462 532 30,500 -2,432 Descending FlightAware UK
Thu 05:24:24 PM 52.4681 -4.8555 288° West 462 532 30,500 3,462 Level FlightAware UK
Thu 05:24:32 PM 52.4700 -4.8650 288° West 425 489 32,000  Climbing FlightAware ADS-B
Thu 05:24:48 PM 52.4827 -4.9287 288° West 462 532 30,500 -2,647 Descending FlightAware UK
Thu 05:25:06 PM 52.4937 -4.9837 288° West 462 532 30,500 3,750 Level FlightAware UK
Thu 05:25:12 PM 52.4960 -4.9940 288° West 425 489 32,000  Climbing FlightAware ADS-B
Thu 05:25:30 PM 52.5082 -5.0563 288° West 464 534 30,500 -2,500 Descending FlightAware UK
Thu 05:25:48 PM 52.5191 -5.1113 288° West 462 532 30,500 3,333 Level FlightAware UK
Thu 05:25:57 PM 52.5230 -5.1300 288° West 424 488 32,000  Climbing FlightAware ADS-B
Thu 05:26:12 PM 52.5335 -5.1847 288° West 462 532 30,500 -2,727 Descending FlightAware UK
Thu 05:26:30 PM 52.5443 -5.2398 288° West 464 534 30,500 3,600 Level FlightAware UK
Thu 05:26:37 PM 52.5460 -5.2470 288° West 424 488 32,000  Climbing FlightAware ADS-B
Thu 05:26:54 PM 52.5587 -5.3132 288° West 462 532 30,500 -2,571 Descending FlightAware UK
Thu 05:27:12 PM 52.5694 -5.3684 288° West 462 532 30,500 3,913 Level FlightAware UK
Thu 05:27:17 PM 52.5710 -5.3780 288° West 424 488 32,000  Climbing FlightAware ADS-B
Thu 05:27:36 PM 52.5837 -5.4419 288° West 460 529 30,500 -2,432 Descending FlightAware UK
Thu 05:27:54 PM 52.5945 -5.4972 288° West 462 532 30,500 3,462 Level FlightAware UK
Thu 05:28:02 PM 52.5980 -5.5140 288° West 425 489 32,000  Climbing FlightAware ADS-B
Thu 05:28:18 PM 52.6088 -5.5708 288° West 460 529 30,500 -2,647 Descending FlightAware UK
Thu 05:28:36 PM 52.6195 -5.6261 288° West 462 532 30,500 3,750 Level FlightAware UK
Thu 05:28:42 PM 52.6210 -5.6350 288° West 426 490 32,000  Climbing FlightAware ADS-B
Thu 05:29:00 PM 52.6336 -5.7001 288° West 464 534 30,500 -2,500 Descending FlightAware UK
Thu 05:29:18 PM 52.6442 -5.7556 287° West 464 534 30,500 4,091 Level FlightAware UK
Thu 05:29:22 PM 52.6450 -5.7600 287° West 426 490 32,000  Climbing FlightAware ADS-B
Thu 05:29:42 PM 52.6583 -5.8297 287° West 464 534 30,500 -2,368 Descending FlightAware UK
Thu 05:30:00 PM 52.6689 -5.8854 287° West 466 536 30,500 3,600 Level FlightAware UK
Thu 05:30:07 PM 52.6720 -5.9000 287° West 426 490 32,000  Climbing FlightAware ADS-B
Thu 05:30:24 PM 52.6830 -5.9596 287° West 464 534 30,500 -2,571 Descending FlightAware UK
Thu 05:30:42 PM 52.6935 -6.0153 287° West 466 536 30,500 3,913 Level FlightAware UK
Thu 05:30:47 PM 52.6950 -6.0240 287° West 426 490 32,000  Climbing FlightAware ADS-B
Thu 05:31:06 PM 52.7074 -6.0889 287° West 466 536 30,500 -2,432 Descending FlightAware UK
Thu 05:31:24 PM 52.7179 -6.1447 287° West 466 536 30,500 3,462 Level FlightAware UK
Thu 05:31:32 PM 52.7210 -6.1610 287° West 427 491 32,000  Climbing FlightAware ADS-B
Thu 05:31:48 PM 52.7318 -6.2191 287° West 466 536 30,500 -2,647 Descending FlightAware UK
Thu 05:32:06 PM 52.7422 -6.2749 287° West 466 536 30,500 3,750 Level FlightAware UK
Thu 05:32:12 PM 52.7440 -6.2850 287° West 425 489 32,000  Climbing FlightAware ADS-B
Thu 05:32:30 PM 52.7560 -6.3493 287° West 464 534 30,500 -2,500 Descending FlightAware UK
Thu 05:32:48 PM 52.7662 -6.4052 287° West 464 534 30,500 3,333 Level FlightAware UK
Thu 05:32:57 PM 52.7710 -6.4290 287° West 425 489 32,000  Climbing FlightAware ADS-B
Thu 05:33:12 PM 52.7800 -6.4797 287° West 464 534 30,500 -2,727 Descending FlightAware UK
Thu 05:33:30 PM 52.7902 -6.5355 287° West 464 534 30,500 3,600 Level FlightAware UK
Thu 05:33:37 PM 52.7930 -6.5520 287° West 426 490 32,000  Climbing FlightAware ADS-B
Thu 05:33:54 PM 52.8039 -6.6100 287° West 466 536 30,500 -2,571 Descending FlightAware UK
Thu 05:34:12 PM 52.8141 -6.6658 287° West 466 536 30,500 3,913 Level FlightAware UK
Thu 05:34:17 PM 52.8160 -6.6760 287° West 425 489 32,000  Climbing FlightAware ADS-B
Thu 05:34:36 PM 52.8276 -6.7403 287° West 466 536 30,500 -2,432 Descending FlightAware UK
Thu 05:34:54 PM 52.8377 -6.7962 287° West 466 536 30,500 3,462 Level FlightAware UK
Thu 05:35:02 PM 52.8400 -6.8110 287° West 424 488 32,000  Climbing FlightAware ADS-B
Thu 05:35:18 PM 52.8511 -6.8707 287° West 466 536 30,500 -2,647 Descending FlightAware UK
Thu 05:35:36 PM 52.8612 -6.9264 287° West 466 536 30,500 3,750 Level FlightAware UK
Thu 05:35:42 PM 52.8630 -6.9370 287° West 424 488 32,000  Climbing FlightAware ADS-B
Thu 05:36:00 PM 52.8745 -7.0008 287° West 466 536 30,500 -2,500 Descending FlightAware UK
Thu 05:36:18 PM 52.8844 -7.0566 286° West 466 536 30,500 4,091 Level FlightAware UK
Thu 05:36:22 PM 52.8850 -7.0590 286° West 423 487 32,000  Climbing FlightAware ADS-B
Thu 05:36:42 PM 52.8976 -7.1310 286° West 466 536 30,500 -2,368 Descending FlightAware UK
Thu 05:37:00 PM 52.9076 -7.1867 287° West 466 536 30,500 3,600 Level FlightAware UK
Thu 05:37:07 PM 52.9100 -7.2020 287° West 422 486 32,000  Climbing FlightAware ADS-B
Thu 05:37:24 PM 52.9206 -7.2604 287° West 466 536 30,500 -2,571 Descending FlightAware UK
Thu 05:37:42 PM 52.9304 -7.3161 286° West 466 536 30,500 3,913 Level FlightAware UK
Thu 05:37:47 PM 52.9320 -7.3260 286° West 421 484 32,000  Climbing FlightAware ADS-B
Thu 05:38:06 PM 52.9433 -7.3903 286° West 466 536 30,500 -2,432 Descending FlightAware UK
Thu 05:38:24 PM 52.9530 -7.4459 286° West 466 536 30,500 3,462 Level FlightAware UK
Thu 05:38:32 PM 52.9560 -7.4630 286° West 420 483 32,000  Climbing FlightAware ADS-B
Thu 05:38:48 PM 52.9660 -7.5199 286° West 464 534 30,500 -2,647 Descending FlightAware UK
Thu 05:39:06 PM 52.9756 -7.5755 286° West 464 534 30,500 3,750 Level FlightAware UK
Thu 05:39:12 PM 52.9770 -7.5850 286° West 419 482 32,000  Climbing FlightAware ADS-B
Thu 05:39:30 PM 52.9883 -7.6495 286° West 464 534 30,500 -2,500 Descending FlightAware UK
Thu 05:39:48 PM 52.9980 -7.7047 286° West 464 534 30,500 3,333 Level FlightAware UK
Thu 05:39:57 PM 53.0010 -7.7230 286° West 417 480 32,000  Climbing FlightAware ADS-B
Thu 05:40:12 PM 53.0106 -7.7785 286° West 464 534 30,500 -2,727 Descending FlightAware UK
Thu 05:40:30 PM 53.0200 -7.8339 286° West 464 534 30,500 3,600 Level FlightAware UK
Thu 05:40:37 PM 53.0210 -7.8390 286° West 417 480 32,000  Climbing FlightAware ADS-B
Thu 05:40:54 PM 53.0325 -7.9078 286° West 464 534 30,500 -2,571 Descending FlightAware UK
Thu 05:41:12 PM 53.0419 -7.9631 286° West 464 534 30,500 3,913 Level FlightAware UK
Thu 05:41:17 PM 53.0430 -7.9710 286° West 416 479 32,000  Climbing FlightAware ADS-B
Thu 05:41:36 PM 53.0543 -8.0369 286° West 462 532 30,500 -2,432 Descending FlightAware UK
Thu 05:41:54 PM 53.0636 -8.0919 286° West 464 534 30,500  Level FlightAware UK
Thu 05:42:12 PM 53.0728 -8.1471 286° West 464 534 30,500  Level FlightAware UK
Thu 05:42:30 PM 53.0821 -8.2024 286° West 464 534 30,500 2,571 Level FlightAware UK
Thu 05:42:47 PM 53.0860 -8.2270 286° West 414 476 32,000  Climbing FlightAware ADS-B
Thu 05:42:48 PM 53.0915 -8.2578 286° West 466 536 30,500 -4,737 Descending FlightAware UK
Thu 05:43:06 PM 53.1007 -8.3132 286° West 464 534 30,500  Level FlightAware UK
Thu 05:43:24 PM 53.1099 -8.3686 285° West 462 532 30,500 2,903 Level FlightAware UK
Thu 05:43:37 PM 53.1130 -8.3920 285° West 413 475 32,000  Climbing FlightAware ADS-B
Thu 05:43:42 PM 53.1190 -8.4241 285° West 462 532 30,500 -5,294 Descending FlightAware UK
Thu 05:43:54 PM 53.1249 -8.4605 285° West 462 532 30,500  Level FlightAware UK
Thu 05:44:12 PM 53.1338 -8.5159 285° West 466 536 30,500 3,214 Level FlightAware UK
Thu 05:44:22 PM 53.1360 -8.5290 285° West 412 474 32,000  Climbing FlightAware ADS-B
Thu 05:44:42 PM 53.1490 -8.6081 285° West 464 534 30,500 -2,368 Descending FlightAware UK
Thu 05:45:00 PM 53.1580 -8.6634 285° West 462 532 30,500 4,500 Level FlightAware UK
Thu 05:45:02 PM 53.1540 -8.6420 285° West 412 474 32,000  Climbing FlightAware ADS-B
Thu 05:45:18 PM 53.1670 -8.7187 285° West 464 534 30,500 -2,647 Descending FlightAware UK
Thu 05:45:36 PM 53.1760 -8.7739 285° West 466 536 30,500 3,103 Level FlightAware UK
Thu 05:45:47 PM 53.1790 -8.7920 285° West 411 473 32,000  Climbing FlightAware ADS-B
Thu 05:46:06 PM 53.1908 -8.8659 285° West 468 539 30,500 -2,432 Descending FlightAware UK
Thu 05:46:24 PM 53.1997 -8.9210 285° West 468 539 30,500 4,286 Level FlightAware UK
Thu 05:46:27 PM 53.1990 -8.9150 285° West 409 471 32,000  Climbing FlightAware ADS-B
Thu 05:46:42 PM 53.2085 -8.9761 285° West 466 536 30,500  Descending FlightAware UK
Thu 05:47:12 PM 53.2220 -9.0610 285° West 409 471 32,000 1,385 Climbing FlightAware ADS-B
Thu 05:47:47 PM 53.2380 -9.1610 285° West 410 472 32,000  Level FlightAware ADS-B
Thu 05:48:27 PM 53.2560 -9.2790 284° West 411 473 32,000  Level FlightAware ADS-B
Thu 05:50:52 PM 53.3250 -9.7270 285° West 414 476 32,000  Level FlightAware ADS-B
Thu 05:51:37 PM 53.3470 -9.8690 285° West 416 479 32,000  Level FlightAware ADS-B
Thu 05:53:17 PM 53.3930 -10.1790 284° West 416 479 32,000  Level FlightAware ADS-B
Thu 05:54:17 PM 53.4200 -10.3640 284° West 406 467 32,000  Level FlightAware ADS-B
Thu 05:55:42 PM 53.4570 -10.6200 284° West 392 451 32,000  Level FlightAware ADS-B
Thu 05:56:22 PM 53.4740 -10.7370 284° West 392 451 32,000  Level FlightAware ADS-B
Thu 05:58:07 PM 53.5190 -11.0530 284° West 391 450 32,000  Level FlightAware ADS-B
Thu 05:58:47 PM 53.5350 -11.1700 283° West 390 449 32,000  Level FlightAware ADS-B
Thu 05:59:27 PM 53.5520 -11.2870 284° West 389 448 32,000  Level FlightAware ADS-B
Thu 06:00:12 PM 53.5700 -11.4210 283° West 387 445 32,000  Level FlightAware ADS-B
Thu 06:00:52 PM 53.5860 -11.5390 283° West 386 444 32,000  Level FlightAware ADS-B
Thu 06:01:37 PM 53.6040 -11.6720 283° West 384 442 32,000  Level FlightAware ADS-B
Thu 06:02:17 PM 53.6190 -11.7850 283° West 382 440 32,000  Level FlightAware ADS-B
Thu 06:02:57 PM 53.6340 -11.8990 283° West 381 438 32,000  Level FlightAware ADS-B
Thu 06:03:42 PM 53.6520 -12.0320 283° West 380 437 32,000  Level FlightAware ADS-B
Thu 06:04:22 PM 53.6660 -12.1440 282° West 380 437 32,000  Level FlightAware ADS-B
Thu 06:05:07 PM 53.6840 -12.2800 283° West 392 451 32,000  Level FlightAware ADS-B
Thu 06:05:57 PM 53.7020 -12.4220 282° West 395 455 32,000  Level FlightAware ADS-B
Thu 06:06:42 PM 53.7200 -12.5640 282° West 395 455 32,000  Level FlightAware ADS-B
Thu 06:07:27 PM 53.7370 -12.6990 282° West 395 455 32,000  Level FlightAware ADS-B
Thu 06:08:07 PM 53.7520 -12.8190 282° West 395 455 32,000  Level FlightAware ADS-B
Thu 06:08:47 PM 53.7670 -12.9410 282° West 395 455 32,000  Level FlightAware ADS-B
Thu 06:09:32 PM 53.7830 -13.0770 281° West 394 453 32,000  Level FlightAware ADS-B
Thu 06:10:12 PM 53.7980 -13.1940 282° West 394 453 32,000  Level FlightAware ADS-B
Thu 06:10:47 PM 53.8090 -13.2940 281° West 391 450 32,000  Level FlightAware ADS-B
Thu 06:11:32 PM 53.8220 -13.4190 280° West 391 450 32,000  Level FlightAware ADS-B
Thu 06:12:12 PM 53.8330 -13.5220 280° West 391 450 32,000  Level FlightAware ADS-B
Thu 06:13:02 PM 53.8580 -13.7050 283° West 389 448 32,000 -133 Level FlightAware ADS-B
Thu 06:13:42 PM 53.8720 -13.8280 281° West 391 450 31,800 -225 Descending FlightAware ADS-B
Thu 06:14:22 PM 53.8830 -13.9410 279° West 392 451 31,700 -75 Descending FlightAware ADS-B
Thu 06:15:02 PM 53.8930 -14.0440 279° West 392 451 31,700  Level FlightAware ADS-B
Thu 06:15:42 PM 53.9020 -14.1470 278° West 392 451 31,700  Level FlightAware ADS-B
Thu 06:16:32 PM 53.9140 -14.2760 279° West 392 451 31,700  Level FlightAware ADS-B
Thu 06:17:12 PM 53.9240 -14.3800 279° West 392 451 31,700  Level FlightAware ADS-B
Thu 06:17:52 PM 53.9340 -14.4830 279° West 392 451 31,700  Level FlightAware ADS-B
Thu 06:18:32 PM 53.9430 -14.5870 278° West 392 451 31,700  Level FlightAware ADS-B
Thu 06:19:12 PM 53.9530 -14.6900 279° West 392 451 31,700  Level FlightAware ADS-B
Thu 06:20:02 PM 53.9650 -14.8200 279° West 392 451 31,700  Level FlightAware ADS-B
Thu 06:20:42 PM 53.9750 -14.9230 279° West 392 451 31,700  Level FlightAware ADS-B
Thu 06:21:22 PM 53.9840 -15.0270 278° West 392 451 31,700  Level FlightAware ADS-B
Thu 06:22:02 PM 53.9940 -15.1300 279° West 392 451 31,700  Level FlightAware ADS-B
Thu 06:22:42 PM 54.0040 -15.2340 279° West 392 451 31,700  Level FlightAware ADS-B
Thu 06:23:32 PM 54.0160 -15.3640 279° West 392 451 31,700  Level FlightAware ADS-B
Thu 06:26:00 PM 53.9131 -15.8722 251° West  Level Estimated
Thu 06:27:00 PM 53.8708 -16.0774 251° West  Level Estimated
Thu 06:28:00 PM 53.8281 -16.2823 251° West  Level Estimated
Thu 06:29:00 PM 53.7850 -16.4868 250° West  Level Estimated
Thu 06:30:00 PM 53.7417 -16.6908 250° West  Level Estimated
Thu 06:31:00 PM 53.6979 -16.8944 250° West  Level Estimated
Thu 06:32:00 PM 53.6539 -17.0976 250° West  Level Estimated
Thu 06:33:00 PM 53.6095 -17.3004 250° West  Level Estimated
Thu 06:34:00 PM 53.5647 -17.5027 250° West  Level Estimated
Thu 06:35:00 PM 53.5196 -17.7046 249° West  Level Estimated
Thu 06:36:00 PM 53.4742 -17.9060 249° West  Level Estimated
Thu 06:37:00 PM 53.4284 -18.1071 249° West  Level Estimated
Thu 06:38:00 PM 53.3823 -18.3077 249° West  Level Estimated
Thu 06:39:00 PM 53.3359 -18.5079 249° West  Level Estimated
Thu 06:40:00 PM 53.2891 -18.7076 249° West  Level Estimated
Thu 06:41:00 PM 53.2420 -18.9069 249° West  Level Estimated
Thu 06:42:00 PM 53.1945 -19.1057 248° West  Level Estimated
Thu 06:43:00 PM 53.1468 -19.3041 248° West  Level Estimated
Thu 06:44:00 PM 53.0987 -19.5021 248° West  Level Estimated
Thu 06:45:00 PM 53.0502 -19.6996 248° West  Level Estimated
Thu 06:46:00 PM 53.0015 -19.8967 248° West  Level Estimated
Thu 06:47:00 PM 52.9524 -20.0934 248° West  Level Estimated
Thu 06:48:00 PM 52.9030 -20.2896 247° West  Level Estimated
Thu 06:49:00 PM 52.8533 -20.4853 247° West  Level Estimated
Thu 06:50:00 PM 52.8032 -20.6806 247° West  Level Estimated
Thu 06:51:00 PM 52.7529 -20.8754 247° West  Level Estimated
Thu 06:52:00 PM 52.7022 -21.0698 247° West  Level Estimated
Thu 06:53:00 PM 52.6512 -21.2638 247° West  Level Estimated
Thu 06:54:00 PM 52.5998 -21.4572 246° West  Level Estimated
Thu 06:55:00 PM 52.5482 -21.6503 246° West  Level Estimated
Thu 06:56:00 PM 52.4963 -21.8428 246° West  Level Estimated
Thu 06:57:00 PM 52.4440 -22.0350 246° West  Level Estimated
Thu 06:58:00 PM 52.3914 -22.2266 246° West  Level Estimated
Thu 06:59:00 PM 52.3386 -22.4178 246° West  Level Estimated
Thu 07:00:00 PM 52.2854 -22.6086 246° West  Level Estimated
Thu 07:01:00 PM 52.2319 -22.7988 245° Southwest  Level Estimated
Thu 07:02:00 PM 52.1781 -22.9887 245° Southwest  Level Estimated
Thu 07:03:00 PM 52.1240 -23.1780 245° Southwest  Level Estimated
Thu 07:04:00 PM 52.0696 -23.3670 245° Southwest  Level Estimated
Thu 07:05:00 PM 52.0149 -23.5554 245° Southwest  Level Estimated
Thu 07:06:00 PM 51.9599 -23.7434 245° Southwest  Level Estimated
Thu 07:07:00 PM 51.9046 -23.9309 245° Southwest  Level Estimated
Thu 07:08:00 PM 51.8490 -24.1180 244° Southwest  Level Estimated
Thu 07:09:00 PM 51.7931 -24.3046 244° Southwest  Level Estimated
Thu 07:10:00 PM 51.7369 -24.4907 244° Southwest  Level Estimated
Thu 07:11:00 PM 51.6804 -24.6764 244° Southwest  Level Estimated
Thu 07:12:00 PM 51.6236 -24.8616 244° Southwest  Level Estimated
Thu 07:13:00 PM 51.5665 -25.0463 244° Southwest  Level Estimated
Thu 07:14:00 PM 51.5092 -25.2306 243° Southwest  Level Estimated
Thu 07:15:00 PM 51.4515 -25.4144 243° Southwest  Level Estimated
Thu 07:16:00 PM 51.3936 -25.5978 243° Southwest  Level Estimated
Thu 07:17:00 PM 51.3354 -25.7806 243° Southwest  Level Estimated
Thu 07:18:00 PM 51.2769 -25.9631 243° Southwest  Level Estimated
Thu 07:19:00 PM 51.2181 -26.1450 243° Southwest  Level Estimated
Thu 07:20:00 PM 51.1590 -26.3265 243° Southwest  Level Estimated
Thu 07:21:00 PM 51.0997 -26.5075 242° Southwest  Level Estimated
Thu 07:22:00 PM 51.0401 -26.6881 242° Southwest  Level Estimated
Thu 07:23:00 PM 50.9802 -26.8682 242° Southwest  Level Estimated
Thu 07:24:00 PM 50.9200 -27.0478 242° Southwest  Level Estimated
Thu 07:25:00 PM 50.8595 -27.2270 242° Southwest  Level Estimated
Thu 07:26:00 PM 50.7988 -27.4057 242° Southwest  Level Estimated
Thu 07:27:00 PM 50.7378 -27.5839 242° Southwest  Level Estimated
Thu 07:28:00 PM 50.6765 -27.7617 242° Southwest  Level Estimated
Thu 07:29:00 PM 50.6150 -27.9390 241° Southwest  Level Estimated
Thu 07:30:00 PM 50.5532 -28.1158 241° Southwest  Level Estimated
Thu 07:31:00 PM 50.4911 -28.2922 241° Southwest  Level Estimated
Thu 07:32:00 PM 50.4288 -28.4681 241° Southwest  Level Estimated
Thu 07:33:00 PM 50.3662 -28.6435 241° Southwest  Level Estimated
Thu 07:34:00 PM 50.3033 -28.8185 241° Southwest  Level Estimated
Thu 07:35:00 PM 50.2402 -28.9930 241° Southwest  Level Estimated
Thu 07:36:00 PM 50.1768 -29.1671 240° Southwest  Level Estimated
Thu 07:37:00 PM 50.1131 -29.3407 240° Southwest  Level Estimated
Thu 07:38:00 PM 50.0492 -29.5138 240° Southwest  Level Estimated
Thu 07:39:00 PM 49.9851 -29.6865 240° Southwest  Level Estimated
Thu 07:40:00 PM 49.9206 -29.8587 240° Southwest  Level Estimated
Thu 07:41:00 PM 49.8560 -30.0305 240° Southwest  Level Estimated
Thu 07:42:00 PM 49.7910 -30.2018 240° Southwest  Level Estimated
Thu 07:43:00 PM 49.7258 -30.3726 239° Southwest  Level Estimated
Thu 07:44:00 PM 49.6604 -30.5430 239° Southwest  Level Estimated
Thu 07:45:00 PM 49.5947 -30.7129 239° Southwest  Level Estimated
Thu 07:46:00 PM 49.5288 -30.8823 239° Southwest  Level Estimated
Thu 07:47:00 PM 49.4626 -31.0513 239° Southwest  Level Estimated
Thu 07:48:00 PM 49.3962 -31.2199 239° Southwest  Level Estimated
Thu 07:49:00 PM 49.3296 -31.3880 239° Southwest  Level Estimated
Thu 07:50:00 PM 49.2626 -31.5556 239° Southwest  Level Estimated
Thu 07:51:00 PM 49.1955 -31.7228 238° Southwest  Level Estimated
Thu 07:52:00 PM 49.1281 -31.8895 238° Southwest  Level Estimated
Thu 07:53:00 PM 49.0605 -32.0558 238° Southwest  Level Estimated
Thu 07:54:00 PM 48.9926 -32.2216 238° Southwest  Level Estimated
Thu 07:55:00 PM 48.9245 -32.3870 238° Southwest  Level Estimated
Thu 07:56:00 PM 48.8562 -32.5519 238° Southwest  Level Estimated
Thu 07:57:00 PM 48.7876 -32.7163 238° Southwest  Level Estimated
Thu 07:58:00 PM 48.7188 -32.8803 238° Southwest  Level Estimated
Thu 07:59:00 PM 48.6497 -33.0439 237° Southwest  Level Estimated
Thu 08:00:00 PM 48.5805 -33.2070 237° Southwest  Level Estimated
Thu 08:01:00 PM 48.5110 -33.3697 237° Southwest  Level Estimated
Thu 08:02:00 PM 48.4412 -33.5319 237° Southwest  Level Estimated
Thu 08:03:00 PM 48.3713 -33.6937 237° Southwest  Level Estimated
Thu 08:04:00 PM 48.3011 -33.8550 237° Southwest  Level Estimated
Thu 08:05:00 PM 48.2307 -34.0159 237° Southwest  Level Estimated
Thu 08:06:00 PM 48.1601 -34.1764 237° Southwest  Level Estimated
Thu 08:07:00 PM 48.0892 -34.3364 236° Southwest  Level Estimated
Thu 08:08:00 PM 48.0181 -34.4959 236° Southwest  Level Estimated
Thu 08:09:00 PM 47.9468 -34.6550 236° Southwest  Level Estimated
Thu 08:10:00 PM 47.8753 -34.8137 236° Southwest  Level Estimated
Thu 08:11:00 PM 47.8036 -34.9720 236° Southwest  Level Estimated
Thu 08:12:00 PM 47.7316 -35.1298 236° Southwest  Level Estimated
Thu 08:13:00 PM 47.6595 -35.2872 236° Southwest  Level Estimated
Thu 08:14:00 PM 47.5871 -35.4441 236° Southwest  Level Estimated
Thu 08:15:00 PM 47.5145 -35.6006 236° Southwest  Level Estimated
Thu 08:16:00 PM 47.4417 -35.7567 235° Southwest  Level Estimated
Thu 08:17:00 PM 47.3687 -35.9123 235° Southwest  Level Estimated
Thu 08:18:00 PM 47.2954 -36.0675 235° Southwest  Level Estimated
Thu 08:19:00 PM 47.2220 -36.2223 235° Southwest  Level Estimated
Thu 08:20:00 PM 47.1484 -36.3767 235° Southwest  Level Estimated
Thu 08:21:00 PM 47.0745 -36.5306 235° Southwest  Level Estimated
Thu 08:22:00 PM 47.0005 -36.6841 235° Southwest  Level Estimated
Thu 08:23:00 PM 46.9262 -36.8371 235° Southwest  Level Estimated
Thu 08:24:00 PM 46.8517 -36.9898 235° Southwest  Level Estimated
Thu 08:25:00 PM 46.7771 -37.1420 234° Southwest  Level Estimated
Thu 08:26:00 PM 46.7022 -37.2938 234° Southwest  Level Estimated
Thu 08:27:00 PM 46.6271 -37.4452 234° Southwest  Level Estimated
Thu 08:28:00 PM 46.5518 -37.5961 234° Southwest  Level Estimated
Thu 08:29:00 PM 46.4764 -37.7467 234° Southwest  Level Estimated
Thu 08:30:00 PM 46.4007 -37.8968 234° Southwest  Level Estimated
Thu 08:31:00 PM 46.3248 -38.0465 234° Southwest  Level Estimated
Thu 08:32:00 PM 46.2488 -38.1958 234° Southwest  Level Estimated
Thu 08:33:00 PM 46.1726 -38.3447 234° Southwest  Level Estimated
Thu 08:34:00 PM 46.0961 -38.4931 233° Southwest  Level Estimated
Thu 08:35:00 PM 46.0195 -38.6412 233° Southwest  Level Estimated
Thu 08:36:00 PM 45.9427 -38.7888 233° Southwest  Level Estimated
Thu 08:37:00 PM 45.8657 -38.9361 233° Southwest  Level Estimated
Thu 08:38:00 PM 45.7884 -39.0829 233° Southwest  Level Estimated
Thu 08:39:00 PM 45.7111 -39.2293 233° Southwest  Level Estimated
Thu 08:40:00 PM 45.6335 -39.3753 233° Southwest  Level Estimated
Thu 08:41:00 PM 45.5557 -39.5209 233° Southwest  Level Estimated
Thu 08:42:00 PM 45.4778 -39.6661 233° Southwest  Level Estimated
Thu 08:43:00 PM 45.3997 -39.8110 232° Southwest  Level Estimated
Thu 08:44:00 PM 45.3214 -39.9554 232° Southwest  Level Estimated
Thu 08:45:00 PM 45.2429 -40.0994 232° Southwest  Level Estimated
Thu 08:46:00 PM 45.1642 -40.2430 232° Southwest  Level Estimated
Thu 08:47:00 PM 45.0853 -40.3862 232° Southwest  Level Estimated
Thu 08:48:00 PM 45.0063 -40.5290 232° Southwest  Level Estimated
Thu 08:49:00 PM 44.9271 -40.6714 232° Southwest  Level Estimated
Thu 08:50:00 PM 44.8477 -40.8135 232° Southwest  Level Estimated
Thu 08:51:00 PM 44.7682 -40.9551 232° Southwest  Level Estimated
Thu 08:52:00 PM 44.6884 -41.0964 232° Southwest  Level Estimated
Thu 08:53:00 PM 44.6085 -41.2372 231° Southwest  Level Estimated
Thu 08:54:00 PM 44.5284 -41.3777 231° Southwest  Level Estimated
Thu 08:55:00 PM 44.4482 -41.5178 231° Southwest  Level Estimated
Thu 08:56:00 PM 44.3678 -41.6575 231° Southwest  Level Estimated
Thu 08:57:00 PM 44.2872 -41.7968 231° Southwest  Level Estimated
Thu 08:58:00 PM 44.2064 -41.9357 231° Southwest  Level Estimated
Thu 08:59:00 PM 44.1255 -42.0743 231° Southwest  Level Estimated
Thu 09:00:00 PM 44.0444 -42.2124 231° Southwest  Level Estimated
Thu 09:01:00 PM 43.9631 -42.3503 231° Southwest  Level Estimated
Thu 09:02:00 PM 43.8817 -42.4877 231° Southwest  Level Estimated
Thu 09:03:00 PM 43.8001 -42.6247 231° Southwest  Level Estimated
Thu 09:04:00 PM 43.7183 -42.7614 230° Southwest  Level Estimated
Thu 09:05:00 PM 43.6364 -42.8977 230° Southwest  Level Estimated
Thu 09:06:00 PM 43.5544 -43.0336 230° Southwest  Level Estimated
Thu 09:07:00 PM 43.4721 -43.1692 230° Southwest  Level Estimated
Thu 09:08:00 PM 43.3897 -43.3044 230° Southwest  Level Estimated
Thu 09:09:00 PM 43.3072 -43.4392 230° Southwest  Level Estimated
Thu 09:10:00 PM 43.2244 -43.5736 230° Southwest  Level Estimated
Thu 09:11:00 PM 43.1416 -43.7077 230° Southwest  Level Estimated
Thu 09:12:00 PM 43.0585 -43.8414 230° Southwest  Level Estimated
Thu 09:13:00 PM 42.9753 -43.9748 230° Southwest  Level Estimated
Thu 09:14:00 PM 42.8920 -44.1078 229° Southwest  Level Estimated
Thu 09:15:00 PM 42.8085 -44.2405 229° Southwest  Level Estimated
Thu 09:16:00 PM 42.7249 -44.3727 229° Southwest  Level Estimated
Thu 09:17:00 PM 42.6411 -44.5047 229° Southwest  Level Estimated
Thu 09:18:00 PM 42.5571 -44.6362 229° Southwest  Level Estimated
Thu 09:19:00 PM 42.4730 -44.7675 229° Southwest  Level Estimated
Thu 09:20:00 PM 42.3888 -44.8983 229° Southwest  Level Estimated
Thu 09:21:00 PM 42.3044 -45.0289 229° Southwest  Level Estimated
Thu 09:22:00 PM 42.2198 -45.1590 229° Southwest  Level Estimated
Thu 09:23:00 PM 42.1351 -45.2888 229° Southwest  Level Estimated
Thu 09:24:00 PM 42.0503 -45.4183 229° Southwest  Level Estimated
Thu 09:25:00 PM 41.9653 -45.5474 229° Southwest  Level Estimated
Thu 09:26:00 PM 41.8802 -45.6762 228° Southwest  Level Estimated
Thu 09:27:00 PM 41.7949 -45.8047 228° Southwest  Level Estimated
Thu 09:28:00 PM 41.7095 -45.9328 228° Southwest  Level Estimated
Thu 09:29:00 PM 41.6240 -46.0605 228° Southwest  Level Estimated
Thu 09:30:00 PM 41.5382 -46.1879 228° Southwest  Level Estimated
Thu 09:31:00 PM 41.4524 -46.3150 228° Southwest  Level Estimated
Thu 09:32:00 PM 41.3664 -46.4418 228° Southwest  Level Estimated
Thu 09:33:00 PM 41.2803 -46.5682 228° Southwest  Level Estimated
Thu 09:34:00 PM 41.1941 -46.6942 228° Southwest  Level Estimated
Thu 09:35:00 PM 41.1077 -46.8200 228° Southwest  Level Estimated
Thu 09:36:00 PM 41.0212 -46.9454 228° Southwest  Level Estimated
Thu 09:37:00 PM 40.9345 -47.0705 227° Southwest  Level Estimated
Thu 09:38:00 PM 40.8477 -47.1952 227° Southwest  Level Estimated
Thu 09:39:00 PM 40.7608 -47.3197 227° Southwest  Level Estimated
Thu 09:40:00 PM 40.6737 -47.4438 227° Southwest  Level Estimated
Thu 09:41:00 PM 40.5865 -47.5676 227° Southwest  Level Estimated
Thu 09:42:00 PM 40.4992 -47.6910 227° Southwest  Level Estimated
Thu 09:43:00 PM 40.4117 -47.8142 227° Southwest  Level Estimated
Thu 09:44:00 PM 40.3241 -47.9370 227° Southwest  Level Estimated
Thu 09:45:00 PM 40.2364 -48.0595 227° Southwest  Level Estimated
Thu 09:46:00 PM 40.1486 -48.1816 227° Southwest  Level Estimated
Thu 09:47:00 PM 40.0606 -48.3035 227° Southwest  Level Estimated
Thu 09:48:00 PM 39.9725 -48.4251 227° Southwest  Level Estimated
Thu 09:49:00 PM 39.8843 -48.5463 227° Southwest  Level Estimated
Thu 09:50:00 PM 39.7959 -48.6672 226° Southwest  Level Estimated
Thu 09:51:00 PM 39.7074 -48.7878 226° Southwest  Level Estimated
Thu 09:52:00 PM 39.6188 -48.9081 226° Southwest  Level Estimated
Thu 09:53:00 PM 39.5301 -49.0281 226° Southwest  Level Estimated
Thu 09:54:00 PM 39.4412 -49.1478 226° Southwest  Level Estimated
Thu 09:55:00 PM 39.3523 -49.2672 226° Southwest  Level Estimated
Thu 09:56:00 PM 39.2632 -49.3863 226° Southwest  Level Estimated
Thu 09:57:00 PM 39.1740 -49.5051 226° Southwest  Level Estimated
Thu 09:58:00 PM 39.0846 -49.6236 226° Southwest  Level Estimated
Thu 09:59:00 PM 38.9952 -49.7417 226° Southwest  Level Estimated
Thu 10:00:00 PM 38.9056 -49.8596 226° Southwest  Level Estimated
Thu 10:01:00 PM 38.8159 -49.9772 226° Southwest  Level Estimated
Thu 10:02:00 PM 38.7261 -50.0945 226° Southwest  Level Estimated
Thu 10:03:00 PM 38.6362 -50.2115 225° Southwest  Level Estimated
Thu 10:04:00 PM 38.5461 -50.3282 225° Southwest  Level Estimated
Thu 10:05:00 PM 38.4560 -50.4446 225° Southwest  Level Estimated
Thu 10:06:00 PM 38.3657 -50.5607 225° Southwest  Level Estimated
Thu 10:07:00 PM 38.2753 -50.6765 225° Southwest  Level Estimated
Thu 10:08:00 PM 38.1848 -50.7921 225° Southwest  Level Estimated
Thu 10:09:00 PM 38.0942 -50.9073 225° Southwest  Level Estimated
Thu 10:10:00 PM 38.0034 -51.0223 225° Southwest  Level Estimated
Thu 10:11:00 PM 37.9126 -51.1370 225° Southwest  Level Estimated
Thu 10:12:00 PM 37.8217 -51.2514 225° Southwest  Level Estimated
Thu 10:13:00 PM 37.7306 -51.3655 225° Southwest  Level Estimated
Thu 10:14:00 PM 37.6394 -51.4793 225° Southwest  Level Estimated
Thu 10:15:00 PM 37.5481 -51.5929 225° Southwest  Level Estimated
Thu 10:16:00 PM 37.4568 -51.7062 225° Southwest  Level Estimated
Thu 10:17:00 PM 37.3653 -51.8192 224° Southwest  Level Estimated
Thu 10:18:00 PM 37.2737 -51.9319 224° Southwest  Level Estimated
Thu 10:19:00 PM 37.1819 -52.0443 224° Southwest  Level Estimated
Thu 10:20:00 PM 37.0901 -52.1565 224° Southwest  Level Estimated
Thu 10:21:00 PM 36.9982 -52.2684 224° Southwest  Level Estimated
Thu 10:22:00 PM 36.9062 -52.3801 224° Southwest  Level Estimated
Thu 10:23:00 PM 36.8140 -52.4915 224° Southwest  Level Estimated
Thu 10:24:00 PM 36.7218 -52.6026 224° Southwest  Level Estimated
Thu 10:25:00 PM 36.6295 -52.7134 224° Southwest  Level Estimated
Thu 10:26:00 PM 36.5370 -52.8240 224° Southwest  Level Estimated
Thu 10:27:00 PM 36.4445 -52.9342 224° Southwest  Level Estimated
Thu 10:28:00 PM 36.3519 -53.0443 224° Southwest  Level Estimated
Thu 10:29:00 PM 36.2591 -53.1541 224° Southwest  Level Estimated
Thu 10:30:00 PM 36.1663 -53.2636 224° Southwest  Level Estimated
Thu 10:31:00 PM 36.0733 -53.3728 224° Southwest  Level Estimated
Thu 10:32:00 PM 35.9803 -53.4818 223° Southwest  Level Estimated
Thu 10:33:00 PM 35.8872 -53.5906 223° Southwest  Level Estimated
Thu 10:34:00 PM 35.7939 -53.6991 223° Southwest  Level Estimated
Thu 10:35:00 PM 35.7006 -53.8073 223° Southwest  Level Estimated
Thu 10:36:00 PM 35.6072 -53.9153 223° Southwest  Level Estimated
Thu 10:37:00 PM 35.5136 -54.0230 223° Southwest  Level Estimated
Thu 10:38:00 PM 35.4200 -54.1305 223° Southwest  Level Estimated
Thu 10:39:00 PM 35.3263 -54.2377 223° Southwest  Level Estimated
Thu 10:40:00 PM 35.2325 -54.3447 223° Southwest  Level Estimated
Thu 10:41:00 PM 35.1386 -54.4514 223° Southwest  Level Estimated
Thu 10:42:00 PM 35.0446 -54.5579 223° Southwest  Level Estimated
Thu 10:43:00 PM 34.9505 -54.6642 223° Southwest  Level Estimated
Thu 10:44:00 PM 34.8563 -54.7702 223° Southwest  Level Estimated
Thu 10:45:00 PM 34.7620 -54.8759 223° Southwest  Level Estimated
Thu 10:46:00 PM 34.6676 -54.9814 223° Southwest  Level Estimated
Thu 10:47:00 PM 34.5732 -55.0867 223° Southwest  Level Estimated
Thu 10:48:00 PM 34.4786 -55.1917 222° Southwest  Level Estimated
Thu 10:49:00 PM 34.3840 -55.2965 222° Southwest  Level Estimated
Thu 10:50:00 PM 34.2893 -55.4011 222° Southwest  Level Estimated
Thu 10:51:00 PM 34.1945 -55.5054 222° Southwest  Level Estimated
Thu 10:52:00 PM 34.0995 -55.6095 222° Southwest  Level Estimated
Thu 10:53:00 PM 34.0046 -55.7134 222° Southwest  Level Estimated
Thu 10:54:00 PM 33.9095 -55.8170 222° Southwest  Level Estimated
Thu 10:55:00 PM 33.8143 -55.9204 222° Southwest  Level Estimated
Thu 10:56:00 PM 33.7191 -56.0235 222° Southwest  Level Estimated
Thu 10:57:00 PM 33.6237 -56.1265 222° Southwest  Level Estimated
Thu 10:58:00 PM 33.5283 -56.2292 222° Southwest  Level Estimated
Thu 10:59:00 PM 33.4328 -56.3317 222° Southwest  Level Estimated
Thu 11:00:00 PM 33.3372 -56.4339 222° Southwest  Level Estimated
Thu 11:01:00 PM 33.2415 -56.5360 222° Southwest  Level Estimated
Thu 11:02:00 PM 33.1458 -56.6378 222° Southwest  Level Estimated
Thu 11:03:00 PM 33.0499 -56.7394 222° Southwest  Level Estimated
Thu 11:04:00 PM 32.9540 -56.8407 222° Southwest  Level Estimated
Thu 11:05:00 PM 32.8580 -56.9419 222° Southwest  Level Estimated
Thu 11:06:00 PM 32.7619 -57.0428 221° Southwest  Level Estimated
Thu 11:07:00 PM 32.6658 -57.1435 221° Southwest  Level Estimated
Thu 11:08:00 PM 32.5695 -57.2440 221° Southwest  Level Estimated
Thu 11:09:00 PM 32.4732 -57.3443 221° Southwest  Level Estimated
Thu 11:10:00 PM 32.3768 -57.4443 221° Southwest  Level Estimated
Thu 11:11:00 PM 32.2803 -57.5442 221° Southwest  Level Estimated
Thu 11:12:00 PM 32.1837 -57.6438 221° Southwest  Level Estimated
Thu 11:13:00 PM 32.0871 -57.7433 221° Southwest  Level Estimated
Thu 11:14:00 PM 31.9904 -57.8425 221° Southwest  Level Estimated
Thu 11:15:00 PM 31.8936 -57.9415 221° Southwest  Level Estimated
Thu 11:16:00 PM 31.7967 -58.0403 221° Southwest  Level Estimated
Thu 11:17:00 PM 31.6998 -58.1389 221° Southwest  Level Estimated
Thu 11:18:00 PM 31.6027 -58.2373 221° Southwest  Level Estimated
Thu 11:19:00 PM 31.5056 -58.3354 221° Southwest  Level Estimated
Thu 11:20:00 PM 31.4085 -58.4334 221° Southwest  Level Estimated
Thu 11:21:00 PM 31.3112 -58.5312 221° Southwest  Level Estimated
Thu 11:22:00 PM 31.2139 -58.6287 221° Southwest  Level Estimated
Thu 11:23:00 PM 31.1165 -58.7261 221° Southwest  Level Estimated
Thu 11:24:00 PM 31.0190 -58.8233 221° Southwest  Level Estimated
Thu 11:25:00 PM 30.9215 -58.9203 220° Southwest  Level Estimated
Thu 11:26:00 PM 30.8239 -59.0170 220° Southwest  Level Estimated
Thu 11:27:00 PM 30.7262 -59.1136 220° Southwest  Level Estimated
Thu 11:28:00 PM 30.6284 -59.2100 220° Southwest  Level Estimated
Thu 11:29:00 PM 30.5306 -59.3062 220° Southwest  Level Estimated
Thu 11:30:00 PM 30.4327 -59.4022 220° Southwest  Level Estimated
Thu 11:31:00 PM 30.3347 -59.4980 220° Southwest  Level Estimated
Thu 11:32:00 PM 30.2367 -59.5936 220° Southwest  Level Estimated
Thu 11:33:00 PM 30.1386 -59.6890 220° Southwest  Level Estimated
Thu 11:34:00 PM 30.0404 -59.7842 220° Southwest  Level Estimated
Thu 11:35:00 PM 29.9422 -59.8793 220° Southwest  Level Estimated
Thu 11:36:00 PM 29.8439 -59.9741 220° Southwest  Level Estimated
Thu 11:37:00 PM 29.7455 -60.0688 220° Southwest  Level Estimated
Thu 11:38:00 PM 29.6470 -60.1633 220° Southwest  Level Estimated
Thu 11:39:00 PM 29.5485 -60.2576 220° Southwest  Level Estimated
Thu 11:40:00 PM 29.4499 -60.3517 220° Southwest  Level Estimated
Thu 11:41:00 PM 29.3513 -60.4456 220° Southwest  Level Estimated
Thu 11:42:00 PM 29.2526 -60.5394 220° Southwest  Level Estimated
Thu 11:43:00 PM 29.1538 -60.6329 220° Southwest  Level Estimated
Thu 11:44:00 PM 29.0550 -60.7263 220° Southwest  Level Estimated
Thu 11:45:00 PM 29.6714 -65.3130 200° South 485 558 31,700  Level FlightAware Transoceanic
Thu 11:46:00 PM 29.5440 -65.3649 200° South 485 558 31,700  Level FlightAware Transoceanic
Thu 11:47:00 PM 29.4167 -65.4167 185° South 485 558 31,700  Level FlightAware Transoceanic
Thu 11:48:00 PM 29.2848 -65.4287 185° South 485 558 31,700  Level FlightAware Transoceanic
Thu 11:49:00 PM 29.1530 -65.4407 185° South 485 558 31,700 1,865 Level FlightAware Transoceanic
Thu 11:49:14 PM 29.4167 -65.4167 185° South 489 563 34,000  Climbing New York Oceanic (ODAPS)
Thu 11:50:00 PM 29.0212 -65.4527 185° South 485 558 31,700 -1,302 Descending FlightAware Transoceanic
Thu 11:51:00 PM 28.8894 -65.4647 185° South 485 558 31,700  Level FlightAware Transoceanic
Thu 11:52:00 PM 28.7576 -65.4766 185° South 485 558 31,700  Level FlightAware Transoceanic
Thu 11:53:00 PM 28.6257 -65.4885 185° South 485 558 31,700  Level FlightAware Transoceanic
Thu 11:54:00 PM 28.4939 -65.5004 185° South 485 558 31,700 1,150 Level FlightAware Transoceanic
Thu 11:55:00 PM 28.3429 -65.5139 185° South 489 563 34,000 1,150 Climbing FlightAware Transoceanic
Thu 11:56:00 PM 28.2087 -65.5260 185° South 489 563 34,000  Level FlightAware Transoceanic
Thu 11:57:00 PM 28.0745 -65.5380 185° South 489 563 34,000  Level FlightAware Transoceanic
Thu 11:58:00 PM 27.9402 -65.5499 184° South 489 563 34,000  Level FlightAware Transoceanic
Thu 11:59:00 PM 27.8060 -65.5619 184° South 489 563 34,000  Level FlightAware Transoceanic
Fri 12:00:00 AM 27.6718 -65.5738 184° South 489 563 34,000  Level FlightAware Transoceanic
Fri 12:01:00 AM 27.5375 -65.5856 184° South 489 563 34,000  Level FlightAware Transoceanic
Fri 12:02:00 AM 27.4033 -65.5975 184° South 489 563 34,000  Level FlightAware Transoceanic
Fri 12:03:00 AM 27.2691 -65.6093 184° South 489 563 34,000  Level FlightAware Transoceanic
Fri 12:04:00 AM 27.1348 -65.6211 184° South 489 563 34,000  Level FlightAware Transoceanic
Fri 12:05:00 AM 27.0006 -65.6328 184° South 489 563 34,000  Level FlightAware Transoceanic
Fri 12:06:00 AM 26.8664 -65.6446 184° South 489 563 34,000  Level FlightAware Transoceanic
Fri 12:07:00 AM 26.7321 -65.6563 184° South 489 563 34,000  Level FlightAware Transoceanic
Fri 12:08:00 AM 26.5979 -65.6680 184° South 489 563 34,000  Level FlightAware Transoceanic
Fri 12:09:00 AM 26.4637 -65.6796 184° South 489 563 34,000  Level FlightAware Transoceanic
Fri 12:10:00 AM 26.3294 -65.6912 184° South 489 563 34,000  Level FlightAware Transoceanic
Fri 12:11:00 AM 26.1952 -65.7028 184° South 489 563 34,000  Level FlightAware Transoceanic
Fri 12:12:00 AM 26.0609 -65.7144 184° South 489 563 34,000  Level FlightAware Transoceanic
Fri 12:13:00 AM 25.9267 -65.7259 184° South 489 563 34,000  Level FlightAware Transoceanic
Fri 12:14:00 AM 25.7925 -65.7374 184° South 489 563 34,000  Level FlightAware Transoceanic
Fri 12:15:00 AM 25.6582 -65.7489 184° South 489 563 34,000  Level FlightAware Transoceanic
Fri 12:16:00 AM 25.5240 -65.7604 184° South 489 563 34,000  Level FlightAware Transoceanic
Fri 12:17:00 AM 25.3897 -65.7718 184° South 489 563 34,000  Level FlightAware Transoceanic
Fri 12:18:00 AM 25.2555 -65.7832 184° South 489 563 34,000  Level FlightAware Transoceanic
Fri 12:19:00 AM 25.1212 -65.7946 184° South 489 563 34,000  Level FlightAware Transoceanic
Fri 12:20:00 AM 24.9870 -65.8060 184° South 489 563 34,000  Level FlightAware Transoceanic
Fri 12:21:00 AM 24.8527 -65.8173 184° South 489 563 34,000  Level FlightAware Transoceanic
Fri 12:22:00 AM 24.7185 -65.8286 184° South 489 563 34,000  Level FlightAware Transoceanic
Fri 12:23:00 AM 24.5842 -65.8399 184° South 489 563 34,000  Level FlightAware Transoceanic
Fri 12:24:00 AM 24.4500 -65.8512 184° South 489 563 34,000  Level FlightAware Transoceanic
Fri 12:25:00 AM 24.3157 -65.8624 184° South 489 563 34,000 1,319 Level FlightAware Transoceanic
Fri 12:25:31 AM 24.9333 -65.7833 185° South 453 521 36,000  Climbing New York Oceanic (ODAPS)
Fri 12:26:00 AM 24.1815 -65.8736 184° South 489 563 34,000 -1,348 Descending FlightAware Transoceanic
Fri 12:27:00 AM 24.0472 -65.8848 184° South 489 563 34,000  Level FlightAware Transoceanic
Fri 12:28:00 AM 23.9130 -65.8960 184° South 489 563 34,000  Level FlightAware Transoceanic
Fri 12:29:00 AM 23.7787 -65.9071 184° South 489 563 34,000  Level FlightAware Transoceanic
Fri 12:30:00 AM 23.6445 -65.9183 184° South 489 563 34,000 1,000 Level FlightAware Transoceanic
Fri 12:31:00 AM 23.5464 -65.9123 185° South 453 521 36,000 1,000 Climbing FlightAware Transoceanic
Fri 12:32:00 AM 23.4203 -65.9239 185° South 453 521 36,000  Level FlightAware Transoceanic
Fri 12:33:00 AM 23.2943 -65.9355 185° South 453 521 36,000  Level FlightAware Transoceanic
Fri 12:34:00 AM 23.1682 -65.9470 185° South 453 521 36,000  Level FlightAware Transoceanic
Fri 12:35:00 AM 23.0421 -65.9586 185° South 453 521 36,000  Level FlightAware Transoceanic
Fri 12:36:00 AM 22.9160 -65.9701 185° South 453 521 36,000  Level FlightAware Transoceanic
Fri 12:37:00 AM 22.7899 -65.9816 185° South 453 521 36,000  Level FlightAware Transoceanic
Fri 12:38:00 AM 22.6638 -65.9930 185° South 453 521 36,000  Level FlightAware Transoceanic
Fri 12:39:00 AM 22.5377 -66.0044 185° South 453 521 36,000  Level FlightAware Transoceanic
Fri 12:40:00 AM 22.4116 -66.0159 185° South 453 521 36,000  Level FlightAware Transoceanic
Fri 12:41:00 AM 22.2855 -66.0273 185° South 453 521 36,000  Level FlightAware Transoceanic
Fri 12:42:00 AM 22.1594 -66.0386 185° South 453 521 36,000  Level FlightAware Transoceanic
Fri 12:43:00 AM 22.0333 -66.0500 180° South 453 521 36,000  Level FlightAware Transoceanic
Fri 12:43:05 AM 22.0333 -66.0000 180° South 460 529 36,000  Level San Juan Center
Fri 12:44:00 AM 21.8917 -66.0500 180° South 453 521 36,000  Level FlightAware Transoceanic
Fri 12:44:06 AM 21.9167 -66.0167 188° South 430 495 36,000  Level San Juan Center
Fri 12:45:00 AM 21.7500 -66.0500 180° South 453 521 36,000  Level FlightAware Transoceanic
Fri 12:45:06 AM 21.8333 -66.1000 223° Southwest 390 449 36,000  Level San Juan Center
Fri 12:46:00 AM 21.6083 -66.0500 180° South 453 521 36,000  Level FlightAware Transoceanic
Fri 12:46:06 AM 21.7500 -66.2000 228° Southwest 410 472 36,000  Level San Juan Center
Fri 12:47:00 AM 21.4890 -66.0500 180° South  Level FlightAware Approximate
Fri 12:47:07 AM 21.6833 -66.2833 229° Southwest 410 472 36,000  Level San Juan Center
Fri 12:48:00 AM 21.3697 -66.0500 180° South  Level FlightAware Approximate
Fri 12:48:07 AM 21.6000 -66.3833 228° Southwest 420 483 36,000  Level San Juan Center
Fri 12:49:07 AM 21.5167 -66.4667 223° Southwest 420 483 36,000  Level San Juan Center
Fri 12:50:08 AM 21.4333 -66.5500 223° Southwest 410 472 36,000  Level San Juan Center
Fri 12:51:08 AM 21.3500 -66.6333 223° Southwest 410 472 36,000  Level San Juan Center
Fri 12:52:08 AM 21.2667 -66.7167 223° Southwest 410 472 36,000  Level San Juan Center
Fri 12:53:09 AM 21.1833 -66.8000 223° Southwest 410 472 36,000  Level San Juan Center
Fri 12:54:08 AM 21.1000 -66.8833 223° Southwest 410 472 36,000  Level San Juan Center
Fri 12:59:27 AM 20.6440 -67.3420 223° Southwest 416 479 36,000  Level FlightAware ADS-B
Fri 01:00:12 AM 20.5860 -67.3980 222° Southwest 416 479 36,000  Level FlightAware ADS-B
Fri 01:00:52 AM 20.5240 -67.4590 223° Southwest 418 481 36,000  Level FlightAware ADS-B
Fri 01:01:37 AM 20.4590 -67.5230 223° Southwest 419 482 36,000  Level FlightAware ADS-B
Fri 01:02:17 AM 20.4090 -67.5710 222° Southwest 419 482 36,000  Level FlightAware ADS-B
Fri 01:02:57 AM 20.3440 -67.6360 223° Southwest 422 486 36,000  Level FlightAware ADS-B
Fri 01:03:42 AM 20.2800 -67.6980 222° Southwest 422 486 36,000  Level FlightAware ADS-B
Fri 01:04:22 AM 20.2220 -67.7550 223° Southwest 422 486 36,000  Level FlightAware ADS-B
Fri 01:05:02 AM 20.1650 -67.8110 223° Southwest 422 486 36,000  Level FlightAware ADS-B
Fri 01:05:47 AM 20.0970 -67.8760 222° Southwest 423 487 36,000  Level FlightAware ADS-B
Fri 01:06:27 AM 20.0410 -67.9310 223° Southwest 423 487 36,000  Level FlightAware ADS-B
Fri 01:07:12 AM 19.9830 -67.9860 222° Southwest 424 488 36,000  Level FlightAware ADS-B
Fri 01:07:52 AM 19.9190 -68.0490 223° Southwest 427 491 36,000  Level FlightAware ADS-B
Fri 01:08:32 AM 19.8600 -68.1060 222° Southwest 429 494 36,000  Level FlightAware ADS-B
Fri 01:09:27 AM 19.7820 -68.1810 222° Southwest 429 494 36,000  Level FlightAware ADS-B
Fri 01:10:07 AM 19.7320 -68.2290 222° Southwest 429 494 36,000  Level FlightAware ADS-B
Fri 01:10:47 AM 19.6820 -68.2770 222° Southwest 429 494 36,000  Level FlightAware ADS-B
Fri 01:11:37 AM 19.6190 -68.3370 222° Southwest 429 494 36,000  Level FlightAware ADS-B
Fri 01:12:17 AM 19.5690 -68.3850 222° Southwest 429 494 36,000  Level FlightAware ADS-B
Fri 01:12:57 AM 19.5190 -68.4330 222° Southwest 429 494 36,000  Level FlightAware ADS-B
Fri 01:13:37 AM 19.4690 -68.4810 222° Southwest 429 494 36,000  Level FlightAware ADS-B
Fri 01:14:17 AM 19.4180 -68.5290 222° Southwest 429 494 36,000  Level FlightAware ADS-B
Fri 01:15:07 AM 19.3560 -68.5890 222° Southwest 429 494 36,000  Level FlightAware ADS-B
Fri 01:15:47 AM 19.3060 -68.6370 222° Southwest 429 494 36,000  Level FlightAware ADS-B
Fri 01:16:27 AM 19.2550 -68.6840 221° Southwest 429 494 36,000  Level FlightAware ADS-B
Fri 01:17:07 AM 19.2050 -68.7320 222° Southwest 429 494 36,000  Level FlightAware ADS-B
Fri 01:17:47 AM 19.1550 -68.7800 222° Southwest 429 494 36,000  Level FlightAware ADS-B
Fri 01:18:37 AM 19.0920 -68.8400 222° Southwest 429 494 36,000  Level FlightAware ADS-B
Fri 01:21:00 AM 18.9233 -69.0829 227° Southwest  Level FlightAware Approximate
Fri 01:22:00 AM 18.8428 -69.1756 230° Southwest  Level FlightAware Approximate
Fri 01:23:00 AM 18.7639 -69.2695 223° Southwest  Level FlightAware Approximate
Fri 01:24:00 AM 18.6862 -69.3569 205° Southwest  Level FlightAware Approximate
Fri 01:25:00 AM 18.6106 -69.4508 235° Southwest  Level FlightAware Approximate
Fri 01:26:00 AM 18.5298 -69.5381 232° Southwest  Level FlightAware Approximate
Fri 01:27:00 AM 18.4473 -69.6270 215° Southwest  Level FlightAware Approximate
Fri 01:28:00 AM 18.4167 -69.6500 215° Southwest  Level FlightAware Approximate
Fri 01:29:00 AM 18.4297 -69.6689 215° Southwest  Level Estimated
Fri 01:30:00 AM 18.4297 -69.6689 215° Southwest  Level Estimated
Fri 01:31:00 AM 18.4297 -69.6689 215° Southwest  Level Estimated
Fri 01:32:00 AM 18.4297 -69.6689 215° Southwest  Level Estimated
Fri 01:33:00 AM 18.4297 -69.6689 215° Southwest  Level Estimated
Fri 01:34:00 AM 18.4297 -69.6689 215° Southwest  Level Estimated
Fri 01:35:00 AM 18.4297 -69.6689 215° Southwest  Level Estimated
Fri 01:36:00 AM 18.4297 -69.6689 215° Southwest  Level Estimated
Fri 01:37:00 AM 18.4297 -69.6689 215° Southwest  Level Estimated
Fri 01:38:00 AM 18.4297 -69.6689 215° Southwest  Level Estimated
Fri 01:39:00 AM 18.4297 -69.6689 215° Southwest  Level Estimated
Fri 01:40:00 AM 18.4297 -69.6689 215° Southwest  Level Estimated
Fri 01:41:00 AM 18.4297 -69.6689 215° Southwest  Level Estimated
Fri 01:42:00 AM 18.4297 -69.6689 215° Southwest  Level Estimated
Fri 01:43:00 AM 18.4297 -69.6689 215° Southwest  Level Estimated
Fri 01:44:00 AM 18.4297 -69.6689 215° Southwest  Level Estimated
Fri 01:45:00 AM 18.4297 -69.6689 215° Southwest  Level Estimated
Fri 01:46:00 AM 18.4297 -69.6689 215° Southwest  Level Estimated
Fri 01:47:00 AM 18.4297 -69.6689 215° Southwest  Level Estimated
Fri 01:48:00 AM 18.4297 -69.6689 215° Southwest  Level Estimated
Fri 01:49:00 AM 18.4297 -69.6689 215° Southwest  Level Estimated
Fri 01:50:00 AM 18.4297 -69.6689 215° Southwest  Level Estimated
Fri 01:51:00 AM 18.4297 -69.6689 215° Southwest  Level Estimated
Fri 01:52:00 AM 18.4297 -69.6689 215° Southwest  Level Estimated
Fri 01:53:00 AM 18.4297 -69.6689 215° Southwest  Level Estimated
Fri 01:54:00 AM 18.4297 -69.6689 215° Southwest  Level Estimated
Fri 01:55:00 AM 18.4297 -69.6689 215° Southwest  Level Estimated
Fri 01:56:00 AM 18.4297 -69.6689 215° Southwest  Level Estimated
Fri 01:57:00 AM 18.4297 -69.6689 215° Southwest  Level Estimated
Fri 01:58:00 AM 18.4297 -69.6689 215° Southwest  Level Estimated
Fri 01:59:00 AM 18.4297 -69.6689 215° Southwest  Level Estimated
Fri 02:00:00 AM 18.4297 -69.6689 215° Southwest  Level Estimated
Fri 02:01:00 AM 18.4297 -69.6689 215° Southwest  Level Estimated
Fri 02:02:00 AM 18.4297 -69.6689 215° Southwest  Level Estimated
Fri 02:03:00 AM 18.4297 -69.6689 215° Southwest  Level Estimated
Fri 02:04:00 AM 18.4297 -69.6689 215° Southwest  Level Estimated
Fri 02:05:00 AM 18.4297 -69.6689 215° Southwest  Level Estimated
Fri 02:06:00 AM 18.4297 -69.6689 215° Southwest  Level Estimated
Fri 02:07:00 AM 18.4297 -69.6689 215° Southwest  Level Estimated
Fri 02:08:00 AM 18.4297 -69.6689 215° Southwest  Level Estimated
Fri 02:09:00 AM 18.4297 -69.6689 215° Southwest  Level Estimated
Fri 02:10:00 AM 18.4297 -69.6689 215° Southwest  Level Estimated
Fri 02:11:00 AM 18.4297 -69.6689 215° Southwest  Level Estimated
Fri 02:12:00 AM 18.4297 -69.6689 215° Southwest  Level Estimated
Fri 02:13:00 AM 18.4297 -69.6689 215° Southwest  Level Estimated
Fri 02:14:00 AM 18.4297 -69.6689 215° Southwest  Level Estimated
Fri 02:15:00 AM 18.4297 -69.6689 215° Southwest  Level Estimated
Fri 02:16:00 AM 18.4297 -69.6689 215° Southwest  Level Estimated
Fri 02:17:00 AM 18.4297 -69.6689 215° Southwest  Level Estimated
Fri 02:18:00 AM 18.4297 -69.6689 215° Southwest  Level Estimated
Fri 02:19:00 AM 18.4297 -69.6689 215° Southwest  Level Estimated
Fri 02:20:00 AM 18.4297 -69.6689 215° Southwest  Level Estimated
Fri 02:21:00 AM 18.4297 -69.6689 215° Southwest  Level Estimated
Fri 02:22:00 AM 18.4297 -69.6689 215° Southwest  Level Estimated
Fri 02:23:00 AM 18.4297 -69.6689 215° Southwest  Level Estimated
Fri 02:24:00 AM 18.4297 -69.6689 215° Southwest  Level Estimated
Fri 02:25:00 AM 18.4297 -69.6689 215° Southwest  Level Estimated
Fri 02:26:00 AM 18.4297 -69.6689 215° Southwest  Level Estimated

Login

Don't have an account? Register now (free) for customized features, flight alerts, and more!